createdAt,value
2019-03-26T00:01:37.372Z,96504.02
2019-03-26T00:04:10.664Z,96497.23
2019-03-26T00:06:42.638Z,96499.09
2019-03-26T00:09:15.661Z,96497.88
2019-03-26T00:11:48.910Z,96505.27
2019-03-26T00:14:22.989Z,96506.42
2019-03-26T00:16:54.779Z,96492.45
2019-03-26T00:19:28.864Z,96488.77
2019-03-26T00:22:02.914Z,96494.84
2019-03-26T00:24:37.722Z,96498.14
2019-03-26T00:27:09.839Z,96501.41
2019-03-26T00:29:42.734Z,96500.19
2019-03-26T00:32:15.784Z,96495.96
2019-03-26T00:34:48.955Z,96496.79
2019-03-26T00:37:23.024Z,96497.00
2019-03-26T00:39:55.905Z,96498.35
2019-03-26T00:42:28.445Z,96500.96
2019-03-26T00:45:01.002Z,96505.30
2019-03-26T00:47:35.381Z,96511.20
2019-03-26T00:50:11.537Z,96505.69
2019-03-26T00:52:46.480Z,96516.59
2019-03-26T00:55:23.033Z,96505.45
2019-03-26T00:57:52.769Z,96507.16
2019-03-26T01:00:44.452Z,96510.23
2019-03-26T01:03:18.428Z,96509.08
2019-03-26T01:05:52.014Z,96510.08
2019-03-26T01:08:24.995Z,96514.04
2019-03-26T01:10:59.949Z,96518.28
2019-03-26T01:13:33.823Z,96525.95
2019-03-26T01:16:06.968Z,96530.63
2019-03-26T01:18:41.188Z,96532.92
2019-03-26T01:21:16.022Z,96536.23
2019-03-26T01:23:49.159Z,96540.33
2019-03-26T01:26:22.150Z,96537.06
2019-03-26T01:29:02.402Z,96550.41
2019-03-26T01:31:36.696Z,96544.53
2019-03-26T01:34:11.002Z,96557.06
2019-03-26T01:36:43.061Z,96554.27
2019-03-26T01:39:17.104Z,96564.41
2019-03-26T01:41:51.061Z,96563.45
2019-03-26T01:44:23.457Z,96566.22
2019-03-26T01:46:56.168Z,96558.39
2019-03-26T01:49:29.025Z,96569.22
2019-03-26T01:52:02.134Z,96565.90
2019-03-26T01:54:34.310Z,96572.88
2019-03-26T01:57:08.121Z,96570.12
2019-03-26T01:59:42.146Z,96561.92
2019-03-26T02:02:16.817Z,96571.42
2019-03-26T02:04:59.722Z,96567.29
2019-03-26T02:07:24.824Z,96568.08
2019-03-26T02:09:57.249Z,96579.84
2019-03-26T02:12:30.296Z,96582.61
2019-03-26T02:15:02.526Z,96582.21
2019-03-26T02:17:35.485Z,96583.59
2019-03-26T02:20:09.673Z,96584.42
2019-03-26T02:22:44.053Z,96589.09
2019-03-26T02:25:18.202Z,96592.79
2019-03-26T02:27:52.211Z,96598.05
2019-03-26T02:30:25.283Z,96603.39
2019-03-26T02:32:58.387Z,96605.40
2019-03-26T02:35:32.301Z,96607.22
2019-03-26T02:38:04.449Z,96607.45
2019-03-26T02:40:37.479Z,96617.09
2019-03-26T02:43:09.566Z,96620.21
2019-03-26T02:45:41.543Z,96623.87
2019-03-26T02:48:14.590Z,96628.04
2019-03-26T02:50:49.363Z,96639.38
2019-03-26T02:53:22.546Z,96635.42
2019-03-26T02:55:55.497Z,96631.87
2019-03-26T02:58:28.467Z,96626.89
2019-03-26T03:01:02.013Z,96630.98
2019-03-26T03:03:36.613Z,96632.33
2019-03-26T03:06:10.535Z,96642.02
2019-03-26T03:08:45.112Z,96646.63
2019-03-26T03:11:18.480Z,96651.92
2019-03-26T03:13:52.663Z,96579.70
2019-03-26T03:16:26.744Z,96651.92
2019-03-26T03:19:01.772Z,96643.30
2019-03-26T03:21:34.512Z,96638.91
2019-03-26T03:24:07.506Z,96652.79
2019-03-26T03:26:42.121Z,96649.34
2019-03-26T03:29:16.725Z,96652.36
2019-03-26T03:31:49.755Z,96658.48
2019-03-26T03:34:22.210Z,96667.69
2019-03-26T03:36:55.024Z,96678.33
2019-03-26T03:39:30.206Z,96675.56
2019-03-26T03:42:04.553Z,96675.95
2019-03-26T03:44:37.575Z,96684.20
2019-03-26T03:47:10.369Z,96687.04
2019-03-26T03:49:43.565Z,96683.77
2019-03-26T03:52:19.122Z,96687.80
2019-03-26T03:54:52.377Z,96686.37
2019-03-26T03:57:27.491Z,96691.22
2019-03-26T04:00:02.533Z,96691.88
2019-03-26T04:02:34.671Z,96696.84
2019-03-26T04:05:09.387Z,96700.73
2019-03-26T04:07:44.396Z,96701.70
2019-03-26T04:10:18.139Z,96701.38
2019-03-26T04:12:51.783Z,96707.06
2019-03-26T04:15:25.932Z,96707.61
2019-03-26T04:17:57.745Z,96705.05
2019-03-26T04:20:30.695Z,96707.84
2019-03-26T04:23:03.720Z,96709.14
2019-03-26T04:25:37.474Z,96713.42
2019-03-26T04:28:09.925Z,96715.86
2019-03-26T04:30:43.859Z,96715.75
2019-03-26T04:33:18.623Z,96720.47
2019-03-26T04:35:52.584Z,96718.11
2019-03-26T04:38:25.855Z,96722.57
2019-03-26T04:40:57.823Z,96729.75
2019-03-26T04:43:32.575Z,96731.84
2019-03-26T04:46:05.221Z,96738.33
2019-03-26T04:48:39.861Z,96748.11
2019-03-26T04:51:14.492Z,96755.56
2019-03-26T04:53:48.329Z,96753.36
2019-03-26T04:56:21.978Z,96755.63
2019-03-26T04:58:54.978Z,96758.98
2019-03-26T05:01:30.055Z,96759.05
2019-03-26T05:04:04.772Z,96776.72
2019-03-26T05:06:38.184Z,96775.59
2019-03-26T05:09:13.094Z,96776.73
2019-03-26T05:11:47.336Z,96784.35
2019-03-26T05:14:19.135Z,96784.00
2019-03-26T05:16:53.009Z,96787.45
2019-03-26T05:19:26.288Z,96778.02
2019-03-26T05:22:02.616Z,96779.86
2019-03-26T05:24:36.057Z,96785.73
2019-03-26T05:27:08.398Z,96777.94
2019-03-26T05:29:42.131Z,96786.17
2019-03-26T05:32:17.094Z,96788.94
2019-03-26T05:34:49.197Z,96791.73
2019-03-26T05:37:22.192Z,96794.39
2019-03-26T05:39:55.115Z,96799.16
2019-03-26T05:42:28.198Z,96782.80
2019-03-26T05:45:01.972Z,96789.84
2019-03-26T05:47:34.327Z,96795.42
2019-03-26T05:50:08.253Z,96800.41
2019-03-26T05:52:42.914Z,96806.66
2019-03-26T05:55:17.820Z,96806.87
2019-03-26T05:57:51.350Z,96810.11
2019-03-26T06:00:27.087Z,96810.73
2019-03-26T06:03:00.737Z,96813.19
2019-03-26T06:05:36.042Z,96813.20
2019-03-26T06:08:09.612Z,96821.86
2019-03-26T06:10:44.043Z,96822.77
2019-03-26T06:13:22.206Z,96824.45
2019-03-26T06:15:55.890Z,96825.98
2019-03-26T06:18:28.455Z,96820.42
2019-03-26T06:21:00.620Z,96815.03
2019-03-26T06:23:33.292Z,96823.22
2019-03-26T06:26:07.375Z,96823.22
2019-03-26T06:28:40.254Z,96821.18
2019-03-26T06:31:14.660Z,96815.41
2019-03-26T06:33:50.183Z,96813.94
2019-03-26T06:36:22.325Z,96818.44
2019-03-26T06:38:56.149Z,96819.14
2019-03-26T06:41:28.707Z,96824.11
2019-03-26T06:44:01.595Z,96823.91
2019-03-26T06:46:36.310Z,96824.85
2019-03-26T06:49:11.703Z,96820.67
2019-03-26T06:51:46.540Z,96808.26
2019-03-26T06:54:19.650Z,96809.76
2019-03-26T06:56:52.394Z,96826.32
2019-03-26T06:59:25.625Z,96824.69
2019-03-26T07:01:58.507Z,96825.37
2019-03-26T07:04:32.436Z,96829.19
2019-03-26T07:07:06.673Z,96827.77
2019-03-26T07:09:40.371Z,96829.37
2019-03-26T07:12:13.643Z,96833.62
2019-03-26T07:14:45.550Z,96832.48
2019-03-26T07:17:19.656Z,96839.45
2019-03-26T07:19:52.677Z,96842.97
2019-03-26T07:22:26.876Z,96840.77
2019-03-26T07:25:02.377Z,96839.23
2019-03-26T07:27:34.825Z,96840.69
2019-03-26T07:30:09.417Z,96841.61
2019-03-26T07:32:43.903Z,96838.94
2019-03-26T07:35:18.177Z,96841.01
2019-03-26T07:37:52.587Z,96835.23
2019-03-26T07:40:25.791Z,96837.57
2019-03-26T07:42:57.851Z,96844.36
2019-03-26T07:45:31.826Z,96848.16
2019-03-26T07:48:03.769Z,96846.69
2019-03-26T07:50:37.857Z,96839.11
2019-03-26T07:53:10.979Z,96834.43
2019-03-26T07:55:44.159Z,96833.39
2019-03-26T07:58:16.793Z,96838.22
2019-03-26T08:00:50.577Z,96846.45
2019-03-26T08:03:23.051Z,96852.19
2019-03-26T08:05:57.947Z,96849.86
2019-03-26T08:08:32.504Z,96858.94
2019-03-26T08:11:06.776Z,96847.24
2019-03-26T08:13:43.035Z,96843.71
2019-03-26T08:16:17.973Z,96853.86
2019-03-26T08:18:49.729Z,96856.66
2019-03-26T08:21:23.878Z,96849.65
2019-03-26T08:23:58.408Z,96864.02
2019-03-26T08:26:31.074Z,96861.84
2019-03-26T08:29:04.262Z,96868.48
2019-03-26T08:31:38.792Z,96872.11
2019-03-26T08:34:11.567Z,96875.20
2019-03-26T08:36:45.963Z,96870.08
2019-03-26T08:39:17.826Z,96875.30
2019-03-26T08:41:51.866Z,96877.34
2019-03-26T08:44:26.773Z,96879.17
2019-03-26T08:46:59.669Z,96880.53
2019-03-26T08:49:33.073Z,96885.53
2019-03-26T08:52:05.348Z,96890.73
2019-03-26T08:54:38.021Z,96881.03
2019-03-26T08:57:11.178Z,96881.40
2019-03-26T08:59:45.900Z,96875.70
2019-03-26T09:02:19.710Z,96871.72
2019-03-26T09:04:57.989Z,96868.86
2019-03-26T09:07:32.520Z,96880.02
2019-03-26T09:10:06.338Z,96872.84
2019-03-26T09:12:42.476Z,96875.47
2019-03-26T09:15:16.459Z,96868.68
2019-03-26T09:17:49.154Z,96886.55
2019-03-26T09:20:22.573Z,96881.58
2019-03-26T09:22:58.956Z,96881.47
2019-03-26T09:25:32.176Z,96889.83
2019-03-26T09:28:06.156Z,96888.72
2019-03-26T09:30:39.822Z,96885.23
2019-03-26T09:33:14.244Z,96883.13
2019-03-26T09:35:48.980Z,96879.58
2019-03-26T09:38:38.095Z,96878.11
2019-03-26T09:40:59.578Z,96894.94
2019-03-26T09:43:33.349Z,96883.71
2019-03-26T09:46:07.207Z,96893.30
2019-03-26T09:48:41.507Z,96894.73
2019-03-26T09:51:13.329Z,96882.68
2019-03-26T09:53:46.268Z,96890.01
2019-03-26T09:56:29.198Z,96882.77
2019-03-26T09:58:54.975Z,96878.11
2019-03-26T10:01:31.790Z,96879.22
2019-03-26T10:04:05.882Z,96877.72
2019-03-26T10:06:38.223Z,96862.49
2019-03-26T10:09:28.367Z,96867.61
2019-03-26T10:12:03.043Z,96869.17
2019-03-26T10:14:36.664Z,96872.70
2019-03-26T10:17:10.078Z,96870.15
2019-03-26T10:19:43.204Z,96866.80
2019-03-26T10:22:19.832Z,96868.58
2019-03-26T10:24:53.324Z,96864.86
2019-03-26T10:27:26.569Z,96870.59
2019-03-26T10:29:59.363Z,96878.22
2019-03-26T10:32:31.158Z,96878.77
2019-03-26T10:35:04.369Z,96885.27
2019-03-26T10:37:45.236Z,96878.37
2019-03-26T10:40:30.310Z,96884.17
2019-03-26T10:43:03.157Z,96868.09
2019-03-26T10:45:37.572Z,96868.91
2019-03-26T10:48:11.497Z,96875.69
2019-03-26T10:50:44.495Z,96869.57
2019-03-26T10:53:17.549Z,96865.94
2019-03-26T10:55:49.448Z,96865.42
2019-03-26T10:58:24.229Z,96856.98
2019-03-26T11:00:59.670Z,96862.41
2019-03-26T11:03:34.283Z,96849.18
2019-03-26T11:06:06.590Z,96848.44
2019-03-26T11:08:40.426Z,96848.27
2019-03-26T11:11:12.663Z,96861.02
2019-03-26T11:13:46.579Z,96858.67
2019-03-26T11:16:19.454Z,96861.56
2019-03-26T11:18:52.656Z,96865.45
2019-03-26T11:21:27.125Z,96854.91
2019-03-26T11:24:01.665Z,96847.06
2019-03-26T11:26:36.641Z,96840.30
2019-03-26T11:29:08.849Z,96851.16
2019-03-26T11:31:41.716Z,96833.30
2019-03-26T11:34:14.337Z,96834.18
2019-03-26T11:36:46.956Z,96835.97
2019-03-26T11:39:31.779Z,96830.35
2019-03-26T11:41:57.800Z,96823.70
2019-03-26T11:44:33.329Z,96824.78
2019-03-26T11:47:07.878Z,96817.19
2019-03-26T11:49:41.001Z,96826.88
2019-03-26T11:52:14.291Z,96826.83
2019-03-26T11:54:49.048Z,96838.31
2019-03-26T11:57:22.327Z,96826.72
2019-03-26T11:59:56.185Z,96820.63
2019-03-26T12:02:28.925Z,96829.00
2019-03-26T12:05:02.008Z,96831.42
2019-03-26T12:07:33.826Z,96828.67
2019-03-26T12:10:06.965Z,96831.94
2019-03-26T12:12:41.530Z,96832.03
2019-03-26T12:15:15.121Z,96827.19
2019-03-26T12:17:47.761Z,96829.48
2019-03-26T12:20:19.771Z,96821.92
2019-03-26T12:22:53.069Z,96827.94
2019-03-26T12:25:25.999Z,96813.70
2019-03-26T12:27:59.926Z,96819.14
2019-03-26T12:30:36.440Z,96820.38
2019-03-26T12:33:10.143Z,96818.48
2019-03-26T12:35:44.087Z,96826.97
2019-03-26T12:38:18.731Z,96819.17
2019-03-26T12:40:53.172Z,96810.17
2019-03-26T12:43:26.487Z,96815.90
2019-03-26T12:46:01.725Z,96819.54
2019-03-26T12:48:34.863Z,96811.52
2019-03-26T12:51:08.086Z,96809.53
2019-03-26T12:53:44.488Z,96812.90
2019-03-26T12:56:17.012Z,96807.66
2019-03-26T12:58:49.011Z,96807.64
2019-03-26T13:01:23.258Z,96803.41
2019-03-26T13:03:56.051Z,96786.38
2019-03-26T13:06:30.102Z,96808.09
2019-03-26T13:09:08.907Z,96804.42
2019-03-26T13:11:43.303Z,96794.78
2019-03-26T13:14:17.303Z,96784.22
2019-03-26T13:16:51.843Z,96789.79
2019-03-26T13:19:26.007Z,96791.39
2019-03-26T13:22:01.823Z,96797.59
2019-03-26T13:24:35.319Z,96797.95
2019-03-26T13:27:08.274Z,96794.89
2019-03-26T13:29:42.169Z,96794.75
2019-03-26T13:32:15.152Z,96780.62
2019-03-26T13:34:47.008Z,96778.91
2019-03-26T13:37:21.746Z,96781.50
2019-03-26T13:39:53.843Z,96786.59
2019-03-26T13:42:26.182Z,96784.09
2019-03-26T13:44:59.505Z,96776.91
2019-03-26T13:47:32.447Z,96771.73
2019-03-26T13:50:04.238Z,96791.25
2019-03-26T13:52:38.233Z,96772.64
2019-03-26T13:55:12.865Z,96776.46
2019-03-26T13:57:47.860Z,96772.50
2019-03-26T14:00:31.759Z,96771.47
2019-03-26T14:03:06.688Z,96764.30
2019-03-26T14:05:42.921Z,96774.34
2019-03-26T14:08:18.505Z,96774.28
2019-03-26T14:10:52.291Z,96773.57
2019-03-26T14:13:27.175Z,96771.41
2019-03-26T14:15:59.199Z,96781.42
2019-03-26T14:18:32.213Z,96770.42
2019-03-26T14:21:07.267Z,96767.05
2019-03-26T14:23:39.413Z,96769.48
2019-03-26T14:26:12.358Z,96768.09
2019-03-26T14:28:47.560Z,96768.00
2019-03-26T14:31:19.550Z,96773.70
2019-03-26T14:33:52.285Z,96778.24
2019-03-26T14:36:26.467Z,96767.70
2019-03-26T14:38:59.431Z,96773.84
2019-03-26T14:41:31.626Z,96764.64
2019-03-26T14:44:05.998Z,96759.88
2019-03-26T14:46:38.506Z,96755.16
2019-03-26T14:49:11.545Z,96757.88
2019-03-26T14:51:45.980Z,96764.84
2019-03-26T14:54:18.674Z,96748.95
2019-03-26T14:56:52.716Z,96756.69
2019-03-26T14:59:28.187Z,96751.85
2019-03-26T15:02:00.121Z,96754.50
2019-03-26T15:04:32.593Z,96758.42
2019-03-26T15:07:06.991Z,96747.64
2019-03-26T15:09:41.482Z,96749.30
2019-03-26T15:12:14.573Z,96739.06
2019-03-26T15:14:49.642Z,96756.56
2019-03-26T15:17:26.057Z,96749.48
2019-03-26T15:20:00.390Z,96758.80
2019-03-26T15:22:33.775Z,96751.77
2019-03-26T15:25:10.770Z,96746.81
2019-03-26T15:27:44.266Z,96754.05
2019-03-26T15:30:17.736Z,96759.00
2019-03-26T15:32:50.806Z,96757.72
2019-03-26T15:35:23.569Z,96762.37
2019-03-26T15:37:56.946Z,96759.98
2019-03-26T15:40:29.750Z,96758.52
2019-03-26T15:43:01.620Z,96759.63
2019-03-26T15:45:34.513Z,96757.95
2019-03-26T15:48:07.797Z,96760.61
2019-03-26T15:50:42.532Z,96763.13
2019-03-26T15:53:16.938Z,96762.02
2019-03-26T15:55:51.434Z,96772.31
2019-03-26T15:58:23.920Z,96772.60
2019-03-26T16:00:55.814Z,96778.07
2019-03-26T16:03:28.955Z,96785.00
2019-03-26T16:06:01.991Z,96780.75
2019-03-26T16:08:35.991Z,96777.37
2019-03-26T16:11:07.985Z,96775.59
2019-03-26T16:13:40.790Z,96780.78
2019-03-26T16:16:13.915Z,96779.81
2019-03-26T16:18:45.784Z,96773.42
2019-03-26T16:21:18.931Z,96784.98
2019-03-26T16:23:53.107Z,96790.19
2019-03-26T16:26:25.929Z,96787.89
2019-03-26T16:28:58.153Z,96793.63
2019-03-26T16:31:31.880Z,96780.83
2019-03-26T16:34:04.892Z,96779.46
2019-03-26T16:36:38.405Z,96778.91
2019-03-26T16:39:13.905Z,96775.70
2019-03-26T16:41:49.410Z,96796.36
2019-03-26T16:44:20.371Z,96785.23
2019-03-26T16:46:54.741Z,96788.10
2019-03-26T16:49:29.052Z,96786.97
2019-03-26T16:52:03.073Z,96785.13
2019-03-26T16:54:35.081Z,96777.39
2019-03-26T16:57:09.041Z,96787.59
2019-03-26T16:59:42.518Z,96785.22
2019-03-26T17:02:16.900Z,96789.04
2019-03-26T17:04:51.718Z,96793.61
2019-03-26T17:07:27.808Z,96797.78
2019-03-26T17:10:01.315Z,96799.89
2019-03-26T17:12:35.343Z,96796.38
2019-03-26T17:15:12.828Z,96798.41
2019-03-26T17:17:47.278Z,96800.80
2019-03-26T17:20:20.061Z,96798.95
2019-03-26T17:22:52.990Z,96803.28
2019-03-26T17:25:26.245Z,96808.69
2019-03-26T17:28:00.492Z,96808.74
2019-03-26T17:30:35.821Z,96813.46
2019-03-26T17:33:08.553Z,96809.44
2019-03-26T17:35:41.286Z,96813.78
2019-03-26T17:38:15.549Z,96824.47
2019-03-26T17:40:47.356Z,96828.97
2019-03-26T17:43:19.944Z,96819.91
2019-03-26T17:45:53.275Z,96827.39
2019-03-26T17:48:26.294Z,96827.40
2019-03-26T17:51:00.028Z,96824.33
2019-03-26T17:53:32.728Z,96826.22
2019-03-26T17:56:05.762Z,96833.11
2019-03-26T17:58:38.341Z,96835.36
2019-03-26T18:01:11.253Z,96842.40
2019-03-26T18:03:44.688Z,96833.05
2019-03-26T18:06:17.462Z,96840.45
2019-03-26T18:08:51.617Z,96838.50
2019-03-26T18:11:24.452Z,96846.81
2019-03-26T18:13:57.392Z,96843.44
2019-03-26T18:16:29.532Z,96849.59
2019-03-26T18:19:02.510Z,96850.27
2019-03-26T18:21:50.577Z,96854.61
2019-03-26T18:24:10.525Z,96860.30
2019-03-26T18:26:46.102Z,96848.31
2019-03-26T18:29:20.875Z,96864.86
2019-03-26T18:31:54.418Z,96858.77
2019-03-26T18:34:26.816Z,96858.11
2019-03-26T18:37:02.021Z,96863.28
2019-03-26T18:39:36.292Z,96863.52
2019-03-26T18:42:12.142Z,96863.95
2019-03-26T18:44:45.525Z,96874.89
2019-03-26T18:47:21.806Z,96866.94
2019-03-26T18:49:59.160Z,96876.68
2019-03-26T18:52:35.794Z,96886.78
2019-03-26T18:55:12.362Z,96877.59
2019-03-26T18:57:48.462Z,96880.56
2019-03-26T19:00:38.790Z,96885.73
2019-03-26T19:03:14.141Z,96888.20
2019-03-26T19:05:49.712Z,96888.78
2019-03-26T19:08:24.488Z,96894.25
2019-03-26T19:10:56.654Z,96896.73
2019-03-26T19:13:29.663Z,96889.56
2019-03-26T19:16:02.771Z,96889.33
2019-03-26T19:18:35.629Z,96890.83
2019-03-26T19:21:07.756Z,96893.45
2019-03-26T19:23:41.718Z,96891.66
2019-03-26T19:26:16.100Z,96900.73
2019-03-26T19:28:48.374Z,96899.27
2019-03-26T19:31:20.451Z,96902.08
2019-03-26T19:33:53.840Z,96901.05
2019-03-26T19:36:26.758Z,96900.83
2019-03-26T19:38:59.849Z,96899.48
2019-03-26T19:41:32.764Z,96904.56
2019-03-26T19:44:06.009Z,96901.34
2019-03-26T19:46:40.892Z,96898.72
2019-03-26T19:49:12.806Z,96900.75
2019-03-26T19:51:46.877Z,96908.00
2019-03-26T19:54:18.859Z,96907.84
2019-03-26T19:56:50.878Z,96905.17
2019-03-26T19:59:25.235Z,96901.00
2019-03-26T20:02:01.334Z,96915.18
2019-03-26T20:04:33.903Z,96909.82
2019-03-26T20:07:07.090Z,96910.77
2019-03-26T20:09:40.970Z,96911.67
2019-03-26T20:12:14.997Z,96904.64
2019-03-26T20:14:48.909Z,96907.34
2019-03-26T20:20:30.220Z,96917.42
2019-03-26T20:23:06.527Z,96923.19
2019-03-26T20:25:38.981Z,96919.96
2019-03-26T20:28:13.006Z,96920.64
2019-03-26T20:30:45.034Z,96925.05
2019-03-26T20:33:17.325Z,96924.17
2019-03-26T20:35:51.272Z,96931.23
2019-03-26T20:38:23.939Z,96932.88
2019-03-26T20:40:58.036Z,96927.63
2019-03-26T20:43:37.192Z,96934.16
2019-03-26T20:46:07.201Z,96934.61
2019-03-26T20:48:40.548Z,96936.63
2019-03-26T20:51:15.275Z,96940.88
2019-03-26T20:53:49.362Z,96946.90
2019-03-26T20:56:21.091Z,96945.02
2019-03-26T20:58:54.164Z,96945.03
2019-03-26T21:01:27.214Z,96945.75
2019-03-26T21:04:00.731Z,96950.34
2019-03-26T21:06:34.219Z,96945.91
2019-03-26T21:09:08.110Z,96952.05
2019-03-26T21:11:41.402Z,96956.23
2019-03-26T21:14:13.174Z,96953.32
2019-03-26T21:16:45.047Z,96955.55
2019-03-26T21:19:18.665Z,96966.06
2019-03-26T21:21:53.047Z,96957.14
2019-03-26T21:24:26.289Z,96960.22
2019-03-26T21:27:00.343Z,96959.87
2019-03-26T21:29:33.590Z,96962.32
2019-03-26T21:32:09.866Z,96962.13
2019-03-26T21:34:43.425Z,96965.84
2019-03-26T21:37:18.347Z,96968.29
2019-03-26T21:39:51.343Z,96965.48
2019-03-26T21:42:24.399Z,96966.44
2019-03-26T21:44:58.928Z,96964.72
2019-03-26T21:47:33.248Z,96963.20
2019-03-26T21:50:08.648Z,96968.69
2019-03-26T21:52:41.875Z,96971.59
2019-03-26T21:55:14.699Z,96977.56
2019-03-26T21:57:49.237Z,96974.65
2019-03-26T22:00:21.024Z,96985.69
2019-03-26T22:02:53.392Z,96988.89
2019-03-26T22:05:28.340Z,96983.07
2019-03-26T22:08:02.996Z,96977.50
2019-03-26T22:10:37.336Z,96985.31
2019-03-26T22:13:11.583Z,96985.86
2019-03-26T22:15:47.116Z,96988.36
2019-03-26T22:18:19.525Z,96982.51
2019-03-26T22:20:51.267Z,96990.83
2019-03-26T22:23:24.527Z,96985.17
2019-03-26T22:25:58.344Z,96985.80
2019-03-26T22:28:33.817Z,96982.94
2019-03-26T22:31:08.613Z,96984.68
2019-03-26T22:33:41.594Z,96994.81
2019-03-26T22:36:14.863Z,96996.23
2019-03-26T22:38:47.540Z,96999.28
2019-03-26T22:41:20.601Z,96995.47
2019-03-26T22:43:55.236Z,96995.95
2019-03-26T22:46:29.919Z,97000.95
2019-03-26T22:49:02.444Z,96997.50
2019-03-26T22:51:39.758Z,97001.34
2019-03-26T22:54:14.852Z,97001.68
2019-03-26T22:56:47.847Z,96996.96
2019-03-26T22:59:20.635Z,96993.52
2019-03-26T23:01:55.439Z,96993.39
2019-03-26T23:04:31.828Z,96988.55
2019-03-26T23:07:05.731Z,96993.29
2019-03-26T23:09:39.242Z,96993.41
2019-03-26T23:12:11.781Z,96994.38
2019-03-26T23:14:45.760Z,96993.33
2019-03-26T23:17:17.733Z,96991.36
2019-03-26T23:19:50.982Z,96993.14
2019-03-26T23:22:25.524Z,96991.22
2019-03-26T23:24:59.896Z,96998.34
2019-03-26T23:27:33.965Z,96995.33
2019-03-26T23:30:09.488Z,97002.78
2019-03-26T23:32:44.491Z,96997.80
2019-03-26T23:35:16.716Z,96996.20
2019-03-26T23:37:50.722Z,96999.73
2019-03-26T23:40:23.966Z,97000.56
2019-03-26T23:42:56.864Z,96997.14
2019-03-26T23:45:29.810Z,97002.02
2019-03-26T23:48:02.771Z,97002.48
2019-03-26T23:50:37.231Z,97003.80
2019-03-26T23:53:08.972Z,96997.51
2019-03-26T23:55:42.970Z,96992.35
2019-03-26T23:58:17.509Z,96989.59
